ROMMA est une association bénévole à but non lucratif. Votre soutien est indispensable : ADHERER à ROMMA ou FAIRE un DON

La Beaume - (05, Hautes Alpes)

Buëch (820 m)   Longitude: 5° 40' 9'' E   Latitude: 44° 32' 3'' N Station partenaire n°75
 

Détail journalier du     <<     >>

Température Precipitation Humidité Pression Vent Dir Rafale Dir. rafale Ensol.
Heure (°C) (mm) (%) (hPa) (km/h) (km/h) (min)
01:00 13.2066101313ONO26ONO0
02:00 12.1069101320N44N0
03:00 11.8068101213N34NNE0
04:00 11.9066101211N31NNO0
05:00 11.806710129N23NNO0
06:00 11.706810129NO34ONO0
07:00 11.6069101211NO31NNO0
08:00 11.7068101211N32NO0
09:00 12.1067101214NO35NO0
10:00 12.8062101212NO29ONO0
11:00 14.2060101215N31NNE30
12:00 14.5059101219NNE39NE0
13:00 15.0059101221NE44ENE0
14:00 15.4057101220NE50ENE0
15:00 15.1057101123NE44NE0
16:00 15.3055101124NE48ENE0
17:00 15.9055101223NE42NNE60
18:00 14.6058101220NE37NNE30
19:00 14.0059101319NNE39NE30
20:00 13.0063101315NNE31N0
21:00 12.3065101310N26NE0
22:00 12.4068101411N37NNE0
23:00 12.5067101416N42N0
minuit 11.8069101414N37NNE0

Graphique du 05-10-2019

 

Serveur OMMA